createdAt,value
2024-01-25T00:00:49.229Z,25.87
2024-01-25T00:01:49.289Z,25.86
2024-01-25T00:02:49.278Z,25.89
2024-01-25T00:03:49.406Z,25.89
2024-01-25T00:04:49.547Z,25.87
2024-01-25T00:05:49.549Z,25.87
2024-01-25T00:06:49.518Z,25.87
2024-01-25T00:07:49.691Z,25.87
2024-01-25T00:08:49.579Z,25.86
2024-01-25T00:09:49.791Z,25.85
2024-01-25T00:10:49.686Z,25.86
2024-01-25T00:11:49.694Z,25.89
2024-01-25T00:12:49.745Z,25.87
2024-01-25T00:13:49.746Z,25.87
2024-01-25T00:14:49.815Z,25.85
2024-01-25T00:15:49.851Z,25.87
2024-01-25T00:16:49.884Z,25.85
2024-01-25T00:17:49.917Z,25.86
2024-01-25T00:18:50.046Z,25.85
2024-01-25T00:19:50.036Z,25.83
2024-01-25T00:20:49.988Z,25.86
2024-01-25T00:21:50.046Z,25.86
2024-01-25T00:22:50.051Z,25.86
2024-01-25T00:23:50.075Z,25.83
2024-01-25T00:24:50.184Z,25.85
2024-01-25T00:25:50.125Z,25.87
2024-01-25T00:26:50.140Z,25.87
2024-01-25T00:27:50.269Z,25.83
2024-01-25T00:28:50.275Z,25.82
2024-01-25T00:29:50.326Z,25.83
2024-01-25T00:30:50.402Z,25.85
2024-01-25T00:31:50.433Z,25.85
2024-01-25T00:32:50.598Z,25.86
2024-01-25T00:33:50.665Z,25.86
2024-01-25T00:34:50.627Z,25.83
2024-01-25T00:35:50.573Z,25.85
2024-01-25T00:36:50.653Z,25.83
2024-01-25T00:37:50.684Z,25.85
2024-01-25T00:38:50.718Z,25.80
2024-01-25T00:39:50.929Z,25.82
2024-01-25T00:40:51.743Z,25.82
2024-01-25T00:41:50.925Z,25.79
2024-01-25T00:42:50.989Z,25.80
2024-01-25T00:43:50.976Z,25.83
2024-01-25T00:44:51.046Z,25.83
2024-01-25T00:45:51.177Z,25.83
2024-01-25T00:46:51.107Z,25.82
2024-01-25T00:47:51.208Z,25.80
2024-01-25T00:48:51.576Z,25.82
2024-01-25T00:49:51.326Z,25.80
2024-01-25T00:50:51.299Z,25.83
2024-01-25T00:51:51.379Z,25.83
2024-01-25T00:52:51.343Z,25.80
2024-01-25T00:53:51.358Z,25.80
2024-01-25T00:54:51.370Z,25.82
2024-01-25T00:55:51.353Z,25.83
2024-01-25T00:56:51.419Z,25.79
2024-01-25T00:57:51.473Z,25.82
2024-01-25T00:58:51.490Z,25.80
2024-01-25T00:59:51.571Z,25.80
2024-01-25T01:00:51.702Z,25.82
2024-01-25T01:01:51.762Z,25.83
2024-01-25T01:02:51.594Z,25.80
2024-01-25T01:03:51.700Z,25.79
2024-01-25T01:04:51.871Z,25.80
2024-01-25T01:05:51.803Z,25.82
2024-01-25T01:06:51.881Z,25.79
2024-01-25T01:07:52.038Z,25.79
2024-01-25T01:08:51.930Z,25.79
2024-01-25T01:09:52.034Z,25.80
2024-01-25T01:10:51.967Z,25.82
2024-01-25T01:11:51.984Z,25.80
2024-01-25T01:12:52.017Z,25.80
2024-01-25T01:13:52.005Z,25.83
2024-01-25T01:14:52.023Z,25.79
2024-01-25T01:15:52.174Z,25.79
2024-01-25T01:16:52.125Z,25.79
2024-01-25T01:17:52.152Z,25.82
2024-01-25T01:18:52.317Z,25.80
2024-01-25T01:19:52.421Z,25.79
2024-01-25T01:20:52.328Z,25.80
2024-01-25T01:21:52.264Z,25.79
2024-01-25T01:22:52.325Z,25.79
2024-01-25T01:23:52.482Z,25.80
2024-01-25T01:24:52.526Z,25.79
2024-01-25T01:25:52.570Z,25.76
2024-01-25T01:26:52.561Z,25.79
2024-01-25T01:27:52.688Z,25.76
2024-01-25T01:28:52.586Z,25.80
2024-01-25T01:29:52.614Z,25.79
2024-01-25T01:30:52.684Z,25.79
2024-01-25T01:31:52.637Z,25.76
2024-01-25T01:32:52.785Z,25.82
2024-01-25T01:33:52.884Z,25.77
2024-01-25T01:34:53.036Z,25.79
2024-01-25T01:35:52.769Z,25.75
2024-01-25T01:36:53.311Z,25.77
2024-01-25T01:37:52.844Z,25.75
2024-01-25T01:38:52.850Z,25.75
2024-01-25T01:39:52.911Z,25.77
2024-01-25T01:40:52.913Z,25.80
2024-01-25T01:41:52.986Z,25.79
2024-01-25T01:42:53.028Z,25.76
2024-01-25T01:43:53.064Z,25.76
2024-01-25T01:44:53.126Z,25.76
2024-01-25T01:45:53.183Z,25.77
2024-01-25T01:46:53.198Z,25.76
2024-01-25T01:47:53.348Z,25.75
2024-01-25T01:48:53.417Z,25.77
2024-01-25T01:49:53.368Z,25.76
2024-01-25T01:50:53.491Z,25.76
2024-01-25T01:51:53.425Z,25.79
2024-01-25T01:52:53.397Z,25.75
2024-01-25T01:53:53.413Z,25.76
2024-01-25T01:54:53.446Z,25.77
2024-01-25T01:55:53.474Z,25.76
2024-01-25T01:56:53.579Z,25.77
2024-01-25T01:57:53.508Z,25.76
2024-01-25T01:58:53.526Z,25.76
2024-01-25T01:59:53.530Z,25.73
2024-01-25T02:00:53.669Z,25.72
2024-01-25T02:01:53.966Z,25.73
2024-01-25T02:02:53.651Z,25.72
2024-01-25T02:03:53.758Z,25.73
2024-01-25T02:04:53.755Z,25.75
2024-01-25T02:05:53.718Z,25.76
2024-01-25T02:06:53.758Z,25.75
2024-01-25T02:07:53.761Z,25.73
2024-01-25T02:08:53.773Z,25.73
2024-01-25T02:09:53.800Z,25.75
2024-01-25T02:10:53.789Z,25.75
2024-01-25T02:11:53.803Z,25.77
2024-01-25T02:12:53.800Z,25.73
2024-01-25T02:13:53.803Z,25.75
2024-01-25T02:14:53.814Z,25.73
2024-01-25T02:15:53.817Z,25.72
2024-01-25T02:16:53.802Z,25.72
2024-01-25T02:17:53.878Z,25.70
2024-01-25T02:18:53.928Z,25.70
2024-01-25T02:19:53.942Z,25.72
2024-01-25T02:20:53.845Z,25.70
2024-01-25T02:21:53.907Z,25.70
2024-01-25T02:22:53.906Z,25.69
2024-01-25T02:23:53.931Z,25.73
2024-01-25T02:24:53.977Z,25.73
2024-01-25T02:25:53.915Z,25.69
2024-01-25T02:26:53.943Z,25.72
2024-01-25T02:27:53.942Z,25.72
2024-01-25T02:28:55.553Z,25.72
2024-01-25T02:29:54.003Z,25.72
2024-01-25T02:30:54.085Z,25.73
2024-01-25T02:31:54.018Z,25.70
2024-01-25T02:32:54.195Z,25.72
2024-01-25T02:33:54.190Z,25.73
2024-01-25T02:34:54.210Z,25.75
2024-01-25T02:35:54.071Z,25.73
2024-01-25T02:36:54.144Z,25.70
2024-01-25T02:37:54.162Z,25.72
2024-01-25T02:38:54.114Z,25.70
2024-01-25T02:39:54.161Z,25.70
2024-01-25T02:40:54.129Z,25.70
2024-01-25T02:41:54.194Z,25.69
2024-01-25T02:42:54.191Z,25.69
2024-01-25T02:43:54.142Z,25.69
2024-01-25T02:44:54.307Z,25.72
2024-01-25T02:45:54.196Z,25.70
2024-01-25T02:46:54.180Z,25.70
2024-01-25T02:47:54.278Z,25.70
2024-01-25T02:48:54.248Z,25.70
2024-01-25T02:49:54.325Z,25.69
2024-01-25T02:50:54.180Z,25.70
2024-01-25T02:51:54.263Z,25.69
2024-01-25T02:52:54.212Z,25.70
2024-01-25T02:53:54.281Z,25.70
2024-01-25T02:54:54.199Z,25.70
2024-01-25T02:55:54.218Z,25.69
2024-01-25T02:56:54.200Z,25.70
2024-01-25T02:57:54.289Z,25.69
2024-01-25T02:58:54.254Z,25.70
2024-01-25T02:59:54.244Z,25.72
2024-01-25T03:00:54.336Z,25.68
2024-01-25T03:01:54.326Z,25.69
2024-01-25T03:02:54.296Z,25.70
2024-01-25T03:03:54.382Z,25.69
2024-01-25T03:04:54.517Z,25.70
2024-01-25T03:05:54.468Z,25.70
2024-01-25T03:06:54.390Z,25.69
2024-01-25T03:07:54.352Z,25.69
2024-01-25T03:08:54.299Z,25.68
2024-01-25T03:09:54.358Z,25.69
2024-01-25T03:10:54.330Z,25.72
2024-01-25T03:11:54.374Z,25.68
2024-01-25T03:12:54.361Z,25.69
2024-01-25T03:13:54.311Z,25.66
2024-01-25T03:14:54.356Z,25.66
2024-01-25T03:15:54.396Z,25.66
2024-01-25T03:16:54.443Z,25.70
2024-01-25T03:17:54.460Z,25.68
2024-01-25T03:18:54.451Z,25.69
2024-01-25T03:19:54.542Z,25.69
2024-01-25T03:20:54.393Z,25.68
2024-01-25T03:21:54.497Z,25.68
2024-01-25T03:22:54.386Z,25.63
2024-01-25T03:23:54.478Z,25.70
2024-01-25T03:24:54.495Z,25.69
2024-01-25T03:25:54.393Z,25.68
2024-01-25T03:26:54.421Z,25.68
2024-01-25T03:27:54.408Z,25.65
2024-01-25T03:28:54.422Z,25.66
2024-01-25T03:29:54.441Z,25.65
2024-01-25T03:30:54.486Z,25.66
2024-01-25T03:31:54.471Z,25.68
2024-01-25T03:32:54.501Z,25.65
2024-01-25T03:33:54.572Z,25.66
2024-01-25T03:34:54.541Z,25.66
2024-01-25T03:35:54.488Z,25.66
2024-01-25T03:36:54.540Z,25.66
2024-01-25T03:37:54.495Z,25.68
2024-01-25T03:38:54.525Z,25.68
2024-01-25T03:39:54.622Z,25.66
2024-01-25T03:40:54.639Z,25.66
2024-01-25T03:41:54.601Z,25.65
2024-01-25T03:43:08.470Z,25.65
2024-01-25T03:43:55.606Z,25.66
2024-01-25T03:44:54.539Z,25.68
2024-01-25T03:45:54.580Z,25.65
2024-01-25T03:46:54.547Z,25.66
2024-01-25T03:47:54.594Z,25.66
2024-01-25T03:48:54.637Z,25.68
2024-01-25T03:49:54.659Z,25.66
2024-01-25T03:50:54.572Z,25.66
2024-01-25T03:51:54.647Z,25.65
2024-01-25T03:52:54.608Z,25.66
2024-01-25T03:53:54.558Z,25.63
2024-01-25T03:54:54.595Z,25.63
2024-01-25T03:55:54.578Z,25.63
2024-01-25T03:56:54.748Z,25.65
2024-01-25T03:57:54.625Z,25.68
2024-01-25T03:58:54.587Z,25.62
2024-01-25T03:59:54.605Z,25.63
2024-01-25T04:00:54.765Z,25.62
2024-01-25T04:01:54.702Z,25.66
2024-01-25T04:02:54.624Z,25.63
2024-01-25T04:03:54.701Z,25.65
2024-01-25T04:04:54.648Z,25.63
2024-01-25T04:05:54.692Z,25.65
2024-01-25T04:06:54.621Z,25.66
2024-01-25T04:07:54.625Z,25.66
2024-01-25T04:08:54.572Z,25.66
2024-01-25T04:09:54.620Z,25.66
2024-01-25T04:10:54.626Z,25.65
2024-01-25T04:11:54.655Z,25.65
2024-01-25T04:12:56.324Z,25.63
2024-01-25T04:13:54.596Z,25.62
2024-01-25T04:14:54.597Z,25.63
2024-01-25T04:15:54.655Z,25.61
2024-01-25T04:16:54.674Z,25.63
2024-01-25T04:17:54.665Z,25.63
2024-01-25T04:18:54.727Z,25.63
2024-01-25T04:19:54.711Z,25.65
2024-01-25T04:20:54.644Z,25.61
2024-01-25T04:21:54.639Z,25.62
2024-01-25T04:22:54.613Z,25.63
2024-01-25T04:23:54.596Z,25.63
2024-01-25T04:24:54.657Z,25.59
2024-01-25T04:25:54.631Z,25.61
2024-01-25T04:26:54.625Z,25.62
2024-01-25T04:27:54.665Z,25.61
2024-01-25T04:28:54.643Z,25.61
2024-01-25T04:29:54.637Z,25.61
2024-01-25T04:30:54.609Z,25.62
2024-01-25T04:31:54.614Z,25.61
2024-01-25T04:32:54.726Z,25.62
2024-01-25T04:33:54.759Z,25.59
2024-01-25T04:34:54.725Z,25.58
2024-01-25T04:35:54.665Z,25.59
2024-01-25T04:36:54.662Z,25.59
2024-01-25T04:37:54.612Z,25.59
2024-01-25T04:38:54.613Z,25.61
2024-01-25T04:39:54.690Z,25.59
2024-01-25T04:40:54.687Z,25.58
2024-01-25T04:41:54.689Z,25.61
2024-01-25T04:43:02.070Z,25.58
2024-01-25T04:44:02.011Z,25.58
2024-01-25T04:45:01.956Z,25.58
2024-01-25T04:46:02.047Z,25.56
2024-01-25T04:47:01.991Z,25.59
2024-01-25T04:48:02.281Z,25.59
2024-01-25T04:49:02.179Z,25.62
2024-01-25T04:50:02.108Z,25.61
2024-01-25T04:51:01.969Z,25.62
2024-01-25T04:52:02.038Z,25.62
2024-01-25T04:53:03.272Z,25.63
2024-01-25T04:54:02.026Z,25.59
2024-01-25T04:55:02.108Z,25.59
2024-01-25T04:56:02.042Z,25.59
2024-01-25T04:57:02.014Z,25.59
2024-01-25T04:58:02.027Z,25.58
2024-01-25T04:59:02.039Z,25.61
2024-01-25T05:00:02.033Z,25.59
2024-01-25T05:01:02.160Z,25.59
2024-01-25T05:02:02.106Z,25.59
2024-01-25T05:03:02.055Z,25.63
2024-01-25T05:04:02.060Z,25.59
2024-01-25T05:05:02.118Z,25.61
2024-01-25T05:06:02.065Z,25.61
2024-01-25T05:07:02.107Z,25.61
2024-01-25T05:08:02.109Z,25.59
2024-01-25T05:09:02.037Z,25.58
2024-01-25T05:10:02.098Z,25.56
2024-01-25T05:11:02.104Z,25.58
2024-01-25T05:12:02.083Z,25.53
2024-01-25T05:13:02.074Z,25.52
2024-01-25T05:14:02.022Z,25.53
2024-01-25T05:15:02.095Z,25.53
2024-01-25T05:16:02.050Z,25.55
2024-01-25T05:17:02.041Z,25.50
2024-01-25T05:18:02.112Z,25.49
2024-01-25T05:19:02.262Z,25.50
2024-01-25T05:20:02.234Z,25.50
2024-01-25T05:21:02.038Z,25.48
2024-01-25T05:22:02.044Z,25.48
2024-01-25T05:23:02.029Z,25.48
2024-01-25T05:24:02.095Z,25.48
2024-01-25T05:25:02.170Z,25.48
2024-01-25T05:26:02.003Z,25.48
2024-01-25T05:27:02.064Z,25.49
2024-01-25T05:28:02.150Z,25.45
2024-01-25T05:29:02.072Z,25.45
2024-01-25T05:30:02.074Z,25.46
2024-01-25T05:31:04.323Z,25.50
2024-01-25T05:32:02.119Z,25.48
2024-01-25T05:33:02.270Z,25.53
2024-01-25T05:34:02.270Z,25.50
2024-01-25T05:35:02.341Z,25.48
2024-01-25T05:36:02.100Z,25.48
2024-01-25T05:37:02.110Z,25.50
2024-01-25T05:38:02.083Z,25.50
2024-01-25T05:39:02.072Z,25.50
2024-01-25T05:40:02.202Z,25.49
2024-01-25T05:41:02.044Z,25.50
2024-01-25T05:42:02.059Z,25.53
2024-01-25T05:43:02.093Z,25.52
2024-01-25T05:44:02.018Z,25.53
2024-01-25T05:45:02.112Z,25.52
2024-01-25T05:46:04.559Z,25.53
2024-01-25T05:47:02.087Z,25.53
2024-01-25T05:48:02.086Z,25.53
2024-01-25T05:49:02.138Z,25.56
2024-01-25T05:50:02.346Z,25.52
2024-01-25T05:51:02.044Z,25.53
2024-01-25T05:52:02.131Z,25.52
2024-01-25T05:53:02.147Z,25.56
2024-01-25T05:54:02.087Z,25.53
2024-01-25T05:55:04.341Z,25.53
2024-01-25T05:56:02.109Z,25.50
2024-01-25T05:57:02.086Z,25.50
2024-01-25T05:58:02.134Z,25.53
2024-01-25T05:59:02.095Z,25.52
2024-01-25T06:00:02.072Z,25.50
2024-01-25T06:01:02.185Z,25.52
2024-01-25T06:02:02.389Z,25.52
2024-01-25T06:03:02.093Z,25.50
2024-01-25T06:04:02.175Z,25.52
2024-01-25T06:05:02.241Z,25.55
2024-01-25T06:06:02.189Z,25.55
2024-01-25T06:07:02.297Z,25.52
2024-01-25T06:08:02.260Z,25.52
2024-01-25T06:09:11.257Z,25.49
2024-01-25T06:10:03.220Z,25.48
2024-01-25T06:11:02.183Z,25.50
2024-01-25T06:12:02.146Z,25.50
2024-01-25T06:13:02.167Z,25.50
2024-01-25T06:14:02.220Z,25.50
2024-01-25T06:15:02.104Z,25.52
2024-01-25T06:16:02.167Z,25.55
2024-01-25T06:17:02.099Z,25.50
2024-01-25T06:18:02.097Z,25.50
2024-01-25T06:19:02.167Z,25.50
2024-01-25T06:20:02.499Z,25.52
2024-01-25T06:21:02.109Z,25.50
2024-01-25T06:22:02.162Z,25.52
2024-01-25T06:23:02.125Z,25.50
2024-01-25T06:24:02.134Z,25.50
2024-01-25T06:25:02.242Z,25.49
2024-01-25T06:26:02.496Z,25.49
2024-01-25T06:27:02.094Z,25.52
2024-01-25T06:28:02.126Z,25.50
2024-01-25T06:29:02.110Z,25.49
2024-01-25T06:30:02.110Z,25.50
2024-01-25T06:31:02.168Z,25.52
2024-01-25T06:32:07.652Z,25.50
2024-01-25T06:33:03.296Z,25.48
2024-01-25T06:34:02.308Z,25.42
2024-01-25T06:35:02.290Z,25.42
2024-01-25T06:36:02.141Z,25.36
2024-01-25T06:37:02.151Z,25.34
2024-01-25T06:38:02.146Z,25.25
2024-01-25T06:39:02.112Z,24.99
2024-01-25T06:40:02.724Z,24.90
2024-01-25T06:41:02.157Z,24.78
2024-01-25T06:42:02.156Z,24.54
2024-01-25T06:43:02.256Z,24.44
2024-01-25T06:44:03.101Z,24.27
2024-01-25T06:45:02.152Z,24.24
2024-01-25T06:46:02.176Z,24.20
2024-01-25T06:47:02.194Z,24.19
2024-01-25T06:48:02.319Z,24.17
2024-01-25T06:49:02.346Z,24.09
2024-01-25T06:50:02.516Z,24.17
2024-01-25T06:51:02.695Z,24.15
2024-01-25T06:52:02.452Z,24.17
2024-01-25T06:53:02.474Z,24.17
2024-01-25T06:54:02.551Z,24.19
2024-01-25T06:55:02.649Z,24.20
2024-01-25T06:56:02.667Z,24.24
2024-01-25T06:57:02.623Z,24.37
2024-01-25T06:58:02.769Z,24.50
2024-01-25T06:59:02.713Z,24.60
2024-01-25T07:00:02.807Z,24.70
2024-01-25T07:01:03.292Z,24.80
2024-01-25T07:02:03.345Z,24.87
2024-01-25T07:03:02.802Z,24.95
2024-01-25T07:04:02.911Z,25.08
2024-01-25T07:05:03.183Z,25.12
2024-01-25T07:06:03.356Z,25.22
2024-01-25T07:07:03.060Z,25.28
2024-01-25T07:08:03.072Z,25.34
2024-01-25T07:09:03.103Z,25.39
2024-01-25T07:10:03.729Z,25.41
2024-01-25T07:11:03.326Z,25.50
2024-01-25T07:12:03.171Z,25.41
2024-01-25T07:13:03.360Z,25.49
2024-01-25T07:14:03.343Z,25.55
2024-01-25T07:15:03.402Z,25.63
2024-01-25T07:16:03.524Z,25.65
2024-01-25T07:17:03.442Z,25.55
2024-01-25T07:18:03.718Z,25.66
2024-01-25T07:19:04.297Z,25.72
2024-01-25T07:20:03.730Z,25.82
2024-01-25T07:21:03.775Z,25.82
2024-01-25T07:22:03.750Z,25.86
2024-01-25T07:23:03.693Z,25.87
2024-01-25T07:24:03.691Z,25.89
2024-01-25T07:25:03.744Z,25.92
2024-01-25T07:26:03.787Z,25.92
2024-01-25T07:27:03.691Z,25.99
2024-01-25T07:28:04.907Z,26.00
2024-01-25T07:29:03.691Z,26.04
2024-01-25T07:30:04.226Z,26.07
2024-01-25T07:31:04.825Z,26.08
2024-01-25T07:32:03.858Z,26.12
2024-01-25T07:33:04.181Z,26.12
2024-01-25T07:34:04.026Z,26.06
2024-01-25T07:35:04.208Z,26.04
2024-01-25T07:36:03.889Z,26.07
2024-01-25T07:37:03.965Z,26.06
2024-01-25T07:38:03.907Z,26.06
2024-01-25T07:39:03.954Z,26.08
2024-01-25T07:40:04.134Z,26.06
2024-01-25T07:41:03.971Z,26.01
2024-01-25T07:42:04.165Z,26.06
2024-01-25T07:43:04.258Z,26.06
2024-01-25T07:44:04.707Z,26.08
2024-01-25T07:45:04.675Z,26.01
2024-01-25T07:46:04.232Z,26.10
2024-01-25T07:47:03.954Z,26.10
2024-01-25T07:48:09.284Z,26.10
2024-01-25T07:49:05.297Z,26.12
2024-01-25T07:50:04.081Z,26.12
2024-01-25T07:51:04.265Z,26.12
2024-01-25T07:52:04.066Z,26.12
2024-01-25T07:53:03.961Z,26.12
2024-01-25T07:54:03.976Z,26.13
2024-01-25T07:55:06.171Z,26.13
2024-01-25T07:56:04.004Z,26.17
2024-01-25T07:57:04.107Z,26.19
2024-01-25T07:58:05.787Z,26.20
2024-01-25T07:59:04.786Z,26.21
2024-01-25T08:00:04.703Z,26.23
2024-01-25T08:01:04.092Z,26.27
2024-01-25T08:02:04.139Z,26.27
2024-01-25T08:03:04.311Z,26.21
2024-01-25T08:04:04.166Z,26.27
2024-01-25T08:05:04.160Z,26.33
2024-01-25T08:06:04.532Z,26.33
2024-01-25T08:07:04.074Z,26.34
2024-01-25T08:08:04.131Z,26.38
2024-01-25T08:09:04.432Z,26.40
2024-01-25T08:10:04.779Z,26.40
2024-01-25T08:11:04.427Z,26.44
2024-01-25T08:12:04.441Z,26.48
2024-01-25T08:13:07.453Z,26.46
2024-01-25T08:14:04.830Z,26.51
2024-01-25T08:15:04.364Z,26.51
2024-01-25T08:16:04.494Z,26.51
2024-01-25T08:17:05.224Z,26.55
2024-01-25T08:18:04.768Z,26.60
2024-01-25T08:19:05.016Z,26.58
2024-01-25T08:20:04.561Z,26.58
2024-01-25T08:21:04.569Z,26.58
2024-01-25T08:22:05.280Z,26.58
2024-01-25T08:23:04.390Z,26.61
2024-01-25T08:24:06.163Z,26.61
2024-01-25T08:25:04.437Z,26.61
2024-01-25T08:26:04.396Z,26.62
2024-01-25T08:27:07.728Z,26.54
2024-01-25T08:28:06.712Z,26.48
2024-01-25T08:29:04.756Z,26.57
2024-01-25T08:30:04.636Z,26.55
2024-01-25T08:31:04.696Z,26.54
2024-01-25T08:32:04.723Z,26.58
2024-01-25T08:33:06.389Z,26.74
2024-01-25T08:34:05.300Z,26.84
2024-01-25T08:35:05.012Z,26.74
2024-01-25T08:36:04.964Z,26.74
2024-01-25T08:37:05.026Z,26.73
2024-01-25T08:38:05.073Z,26.58
2024-01-25T08:39:05.266Z,26.54
2024-01-25T08:40:05.141Z,26.47
2024-01-25T08:41:05.145Z,26.37
2024-01-25T08:42:05.118Z,26.36
2024-01-25T08:43:05.218Z,26.43
2024-01-25T08:44:05.230Z,26.41
2024-01-25T08:45:05.185Z,26.51
2024-01-25T08:46:05.305Z,26.50
2024-01-25T08:47:05.188Z,26.57
2024-01-25T08:48:06.339Z,26.57
2024-01-25T08:49:05.943Z,26.55
2024-01-25T08:50:05.519Z,26.61
2024-01-25T08:51:05.706Z,26.57
2024-01-25T08:52:05.536Z,26.58
2024-01-25T08:53:05.613Z,26.61
2024-01-25T08:54:05.720Z,26.58
2024-01-25T08:55:06.314Z,26.57
2024-01-25T08:56:06.370Z,26.57
2024-01-25T08:57:05.822Z,26.61
2024-01-25T08:58:06.255Z,26.62
2024-01-25T08:59:05.964Z,26.64
2024-01-25T09:00:06.879Z,26.55
2024-01-25T09:01:06.271Z,26.55
2024-01-25T09:02:06.347Z,26.57
2024-01-25T09:03:06.741Z,26.55
2024-01-25T09:04:06.488Z,26.57
2024-01-25T09:05:06.437Z,26.60
2024-01-25T09:06:06.934Z,26.60
2024-01-25T09:07:06.668Z,26.50
2024-01-25T09:08:06.897Z,26.61
2024-01-25T09:09:06.822Z,26.61
2024-01-25T09:10:06.764Z,26.62
2024-01-25T09:11:06.774Z,26.67
2024-01-25T09:12:06.880Z,26.65
2024-01-25T09:13:07.850Z,26.61
2024-01-25T09:14:06.976Z,26.62
2024-01-25T09:15:07.006Z,26.64
2024-01-25T09:16:07.095Z,26.60
2024-01-25T09:17:07.179Z,26.62
2024-01-25T09:18:07.344Z,26.64
2024-01-25T09:19:07.708Z,26.64
2024-01-25T09:20:07.649Z,26.61
2024-01-25T09:21:07.742Z,26.60
2024-01-25T09:22:07.630Z,26.51
2024-01-25T09:23:07.575Z,26.51
2024-01-25T09:24:07.688Z,26.52
2024-01-25T09:25:09.943Z,26.47
2024-01-25T09:26:07.798Z,26.46
2024-01-25T09:27:07.771Z,26.27
2024-01-25T09:28:07.716Z,26.28
2024-01-25T09:29:07.711Z,26.27
2024-01-25T09:30:07.701Z,26.26
2024-01-25T09:31:07.875Z,26.06
2024-01-25T09:32:07.745Z,25.46
2024-01-25T09:33:07.923Z,24.71
2024-01-25T09:34:07.820Z,24.20
2024-01-25T09:35:07.756Z,23.80
2024-01-25T09:36:07.664Z,23.62
2024-01-25T09:37:07.745Z,23.24
2024-01-25T09:38:07.720Z,22.86
2024-01-25T09:39:07.753Z,22.70
2024-01-25T09:40:08.070Z,22.49
2024-01-25T09:41:07.664Z,22.40
2024-01-25T09:42:07.660Z,22.42
2024-01-25T09:43:07.711Z,22.50
2024-01-25T09:44:07.787Z,22.64
2024-01-25T09:45:08.309Z,22.87
2024-01-25T09:46:07.768Z,23.19
2024-01-25T09:47:07.703Z,23.42
2024-01-25T09:48:08.735Z,23.70
2024-01-25T09:49:08.491Z,23.93
2024-01-25T09:50:07.835Z,24.16
2024-01-25T09:51:07.776Z,24.39
2024-01-25T09:52:07.812Z,24.59
2024-01-25T09:53:07.751Z,24.70
2024-01-25T09:54:07.728Z,24.88
2024-01-25T09:55:07.781Z,25.07
2024-01-25T09:56:07.673Z,25.19
2024-01-25T09:57:08.299Z,25.26
2024-01-25T09:58:07.702Z,25.36
2024-01-25T09:59:07.775Z,25.50
2024-01-25T10:00:07.683Z,25.59
2024-01-25T10:01:07.760Z,25.73
2024-01-25T10:02:07.800Z,25.82
2024-01-25T10:03:07.695Z,25.85
2024-01-25T10:04:07.938Z,25.93
2024-01-25T10:05:09.009Z,25.97
2024-01-25T10:06:08.958Z,26.00
2024-01-25T10:07:08.369Z,25.99
2024-01-25T10:08:08.004Z,26.07
2024-01-25T10:09:07.927Z,26.15
2024-01-25T10:10:08.052Z,26.17
2024-01-25T10:11:08.269Z,26.20
2024-01-25T10:12:17.556Z,26.26
2024-01-25T10:13:09.149Z,26.30
2024-01-25T10:14:08.262Z,26.36
2024-01-25T10:15:08.019Z,26.34
2024-01-25T10:16:08.235Z,26.40
2024-01-25T10:17:08.082Z,26.41
2024-01-25T10:19:09.323Z,26.44
2024-01-25T10:20:08.230Z,26.50
2024-01-25T10:21:08.365Z,26.50
2024-01-25T10:22:08.428Z,26.55
2024-01-25T10:23:08.218Z,26.54
2024-01-25T10:24:08.472Z,26.58
2024-01-25T10:25:10.838Z,26.58
2024-01-25T10:26:08.164Z,26.58
2024-01-25T10:27:08.795Z,26.62
2024-01-25T10:28:10.890Z,26.64
2024-01-25T10:29:08.408Z,26.65
2024-01-25T10:30:08.019Z,26.67
2024-01-25T10:31:08.092Z,26.70
2024-01-25T10:32:08.122Z,26.62
2024-01-25T10:33:08.141Z,26.58
2024-01-25T10:34:08.205Z,26.58
2024-01-25T10:35:08.392Z,26.61
2024-01-25T10:36:08.066Z,26.60
2024-01-25T10:37:08.122Z,26.57
2024-01-25T10:38:08.048Z,26.65
2024-01-25T10:39:08.260Z,26.62
2024-01-25T10:40:08.219Z,26.68
2024-01-25T10:41:08.085Z,26.65
2024-01-25T10:42:08.060Z,26.67
2024-01-25T10:43:08.099Z,26.74
2024-01-25T10:44:08.292Z,26.77
2024-01-25T10:45:08.750Z,26.75
2024-01-25T10:46:08.151Z,26.74
2024-01-25T10:47:08.065Z,26.78
2024-01-25T10:48:08.134Z,26.81
2024-01-25T10:49:08.401Z,26.87
2024-01-25T10:50:08.286Z,26.81
2024-01-25T10:51:08.239Z,26.87
2024-01-25T10:52:08.136Z,26.82
2024-01-25T10:53:08.091Z,26.89
2024-01-25T10:54:08.145Z,26.91
2024-01-25T10:55:08.111Z,26.92
2024-01-25T10:56:08.348Z,26.85
2024-01-25T10:57:08.076Z,26.91
2024-01-25T10:58:08.115Z,26.87
2024-01-25T10:59:08.025Z,26.94
2024-01-25T11:00:08.040Z,26.98
2024-01-25T11:01:09.494Z,26.99
2024-01-25T11:02:08.849Z,27.01
2024-01-25T11:03:08.102Z,27.03
2024-01-25T11:04:08.191Z,27.02
2024-01-25T11:05:08.461Z,27.05
2024-01-25T11:06:08.043Z,27.08
2024-01-25T11:07:08.373Z,27.11
2024-01-25T11:08:08.064Z,27.08
2024-01-25T11:09:08.179Z,27.09
2024-01-25T11:10:08.377Z,27.05
2024-01-25T11:11:08.288Z,27.13
2024-01-25T11:12:08.370Z,27.12
2024-01-25T11:13:08.519Z,27.08
2024-01-25T11:14:08.506Z,27.05
2024-01-25T11:15:09.327Z,27.12
2024-01-25T11:16:08.665Z,27.12
2024-01-25T11:17:08.645Z,26.99
2024-01-25T11:18:08.769Z,26.92
2024-01-25T11:19:09.192Z,27.02
2024-01-25T11:20:08.898Z,27.06
2024-01-25T11:21:09.350Z,27.11
2024-01-25T11:22:08.943Z,27.11
2024-01-25T11:23:08.918Z,27.15
2024-01-25T11:24:09.081Z,27.02
2024-01-25T11:25:09.125Z,26.77
2024-01-25T11:26:09.929Z,26.33
2024-01-25T11:27:09.142Z,25.82
2024-01-25T11:28:09.315Z,25.22
2024-01-25T11:29:09.211Z,24.64
2024-01-25T11:30:09.255Z,24.31
2024-01-25T11:31:09.279Z,24.36
2024-01-25T11:32:09.335Z,24.36
2024-01-25T11:33:09.489Z,24.51
2024-01-25T11:34:09.438Z,24.68
2024-01-25T11:35:09.624Z,24.88
2024-01-25T11:36:09.842Z,25.05
2024-01-25T11:37:09.633Z,25.32
2024-01-25T11:38:09.540Z,25.50
2024-01-25T11:39:09.593Z,25.70
2024-01-25T11:40:09.718Z,25.90
2024-01-25T11:41:09.656Z,26.03
2024-01-25T11:42:10.313Z,26.13
2024-01-25T11:43:09.815Z,26.20
2024-01-25T11:44:09.851Z,26.27
2024-01-25T11:45:09.780Z,26.37
2024-01-25T11:46:09.934Z,26.43
2024-01-25T11:47:10.363Z,26.41
2024-01-25T11:48:09.918Z,26.50
2024-01-25T11:49:09.966Z,26.55
2024-01-25T11:50:10.053Z,26.68
2024-01-25T11:51:10.817Z,26.67
2024-01-25T11:52:10.358Z,26.78
2024-01-25T11:53:09.949Z,26.79
2024-01-25T11:54:10.065Z,26.82
2024-01-25T11:55:10.394Z,26.82
2024-01-25T11:56:10.220Z,26.81
2024-01-25T11:57:10.265Z,26.95
2024-01-25T11:58:10.900Z,26.89
2024-01-25T11:59:10.365Z,27.02
2024-01-25T12:00:10.449Z,26.98
2024-01-25T12:01:10.780Z,26.94
2024-01-25T12:02:11.395Z,26.98
2024-01-25T12:03:10.807Z,27.12
2024-01-25T12:04:10.902Z,27.13
2024-01-25T12:05:11.161Z,27.09
2024-01-25T12:06:11.114Z,27.11
2024-01-25T12:07:11.077Z,27.21
2024-01-25T12:08:11.097Z,27.21
2024-01-25T12:09:11.031Z,27.21
2024-01-25T12:10:11.481Z,27.26
2024-01-25T12:11:11.391Z,27.32
2024-01-25T12:12:11.167Z,27.19
2024-01-25T12:13:11.236Z,27.21
2024-01-25T12:14:11.317Z,27.31
2024-01-25T12:15:11.297Z,27.38
2024-01-25T12:16:11.473Z,27.35
2024-01-25T12:17:11.357Z,27.32
2024-01-25T12:18:11.532Z,27.33
2024-01-25T12:19:11.558Z,27.38
2024-01-25T12:20:12.513Z,27.45
2024-01-25T12:21:11.548Z,27.32
2024-01-25T12:22:11.675Z,27.36
2024-01-25T12:23:11.711Z,27.38
2024-01-25T12:24:11.758Z,27.45
2024-01-25T12:25:11.983Z,27.46
2024-01-25T12:26:12.050Z,27.49
2024-01-25T12:27:11.874Z,27.49
2024-01-25T12:28:11.945Z,27.45
2024-01-25T12:29:11.999Z,27.45
2024-01-25T12:30:11.986Z,27.46
2024-01-25T12:31:12.105Z,27.42
2024-01-25T12:32:12.173Z,27.45
2024-01-25T12:33:12.252Z,27.41
2024-01-25T12:34:12.342Z,27.29
2024-01-25T12:35:12.299Z,27.29
2024-01-25T12:36:12.681Z,27.18
2024-01-25T12:37:12.356Z,27.18
2024-01-25T12:38:12.424Z,27.15
2024-01-25T12:39:13.167Z,27.09
2024-01-25T12:40:12.659Z,27.12
2024-01-25T12:41:12.701Z,27.06
2024-01-25T12:42:12.702Z,27.11
2024-01-25T12:43:12.838Z,27.11
2024-01-25T12:44:12.891Z,27.06
2024-01-25T12:45:12.896Z,27.06
2024-01-25T12:46:22.114Z,27.08
2024-01-25T12:47:14.019Z,27.11
2024-01-25T12:48:13.008Z,27.15
2024-01-25T12:49:13.054Z,27.16
2024-01-25T12:50:12.949Z,27.08
2024-01-25T12:51:13.011Z,27.16
2024-01-25T12:52:12.930Z,27.11
2024-01-25T12:53:12.929Z,27.15
2024-01-25T12:54:12.971Z,27.09